Time;durP1;ratioP1;P1;durP2;ratioP2;P2;SDS_P1;SDS_P2;PMS_P1;PMS_P2;Temp;Humidity;BMP_temperature;BMP_pressure;BME280_temperature;BME280_humidity;BME280_pressure;Samples;Min_cycle;Max_cycle;Signal;HPM_P1;HPM_P2
2023/01/04 00:01:08;;;;;;;15.52;5.30;;;7.50;99.90;;;;;;5053727;28;20021;-66
2023/01/04 00:03:34;;;;;;;13.00;5.80;;;7.50;99.90;;;;;;5053461;28;20028;-66
2023/01/04 00:06:02;;;;;;;9.95;4.40;;;7.40;99.90;;;;;;5052551;28;20025;-67
2023/01/04 00:08:28;;;;;;;10.20;4.30;;;7.40;99.90;;;;;;5053618;28;20036;-67
2023/01/04 00:11:00;;;;;;;9.98;4.68;;;7.50;99.90;;;;;;5052317;28;20029;-67
2023/01/04 00:13:26;;;;;;;12.07;4.65;;;7.40;99.90;;;;;;5054029;28;20074;-68
2023/01/04 00:15:52;;;;;;;9.27;4.55;;;7.50;99.90;;;;;;5054055;28;20029;-67
2023/01/04 00:18:17;;;;;;;10.55;4.32;;;7.40;99.90;;;;;;5052963;28;20021;-68
2023/01/04 00:20:43;;;;;;;9.40;4.55;;;7.40;99.90;;;;;;5053485;28;20027;-68
2023/01/04 00:23:09;;;;;;;10.38;4.65;;;7.40;99.90;;;;;;5053184;28;20024;-67
2023/01/04 00:25:37;;;;;;;9.77;4.22;;;7.30;99.90;;;;;;5052296;28;20112;-67
2023/01/04 00:28:03;;;;;;;12.07;4.40;;;7.40;99.90;;;;;;5052142;28;20028;-67
2023/01/04 00:30:28;;;;;;;10.88;4.55;;;7.40;99.90;;;;;;5051990;28;20029;-67
2023/01/04 00:32:56;;;;;;;8.70;3.83;;;7.50;99.90;;;;;;5053447;28;20039;-67
2023/01/04 00:35:21;;;;;;;8.75;3.80;;;7.40;99.90;;;;;;5052251;28;20036;-67
2023/01/04 00:37:47;;;;;;;8.80;4.10;;;7.40;99.90;;;;;;5052311;28;20021;-68
2023/01/04 00:40:12;;;;;;;8.50;4.00;;;7.50;99.90;;;;;;5052731;28;20364;-68
2023/01/04 00:42:38;;;;;;;10.00;4.70;;;7.50;99.90;;;;;;5052021;28;20476;-68
2023/01/04 00:45:04;;;;;;;8.77;4.28;;;7.50;99.90;;;;;;5051895;28;20028;-67
2023/01/04 00:47:29;;;;;;;13.07;4.03;;;7.50;99.90;;;;;;5052073;28;20032;-68
2023/01/04 00:49:55;;;;;;;7.85;3.75;;;7.50;99.90;;;;;;5052125;28;20177;-68
2023/01/04 00:52:20;;;;;;;10.82;4.13;;;7.40;99.90;;;;;;5051680;28;20025;-67
2023/01/04 00:54:46;;;;;;;11.65;4.00;;;7.30;99.90;;;;;;5051930;28;20059;-67
2023/01/04 00:57:11;;;;;;;8.68;3.80;;;7.40;99.90;;;;;;5051643;28;20025;-68
2023/01/04 00:59:37;;;;;;;9.90;3.63;;;7.40;99.90;;;;;;5052333;28;20032;-68
2023/01/04 01:02:02;;;;;;;8.60;3.95;;;7.50;99.90;;;;;;5051999;28;20025;-68
2023/01/04 01:04:28;;;;;;;9.40;3.55;;;7.40;99.90;;;;;;5051702;28;20119;-68
2023/01/04 01:06:54;;;;;;;7.05;3.28;;;7.40;99.90;;;;;;5051549;28;20017;-67
2023/01/04 01:09:21;;;;;;;10.90;5.13;;;7.40;99.90;;;;;;5053276;28;20028;-67
2023/01/04 01:11:47;;;;;;;5.68;3.28;;;7.50;99.90;;;;;;5051612;28;20022;-67
2023/01/04 01:14:20;;;;;;;6.43;2.45;;;7.50;99.90;;;;;;5051483;28;20036;-68
2023/01/04 01:17:09;;;;;;;9.30;3.03;;;7.60;99.90;;;;;;5055369;28;20024;-68
2023/01/04 01:19:34;;;;;;;9.30;3.65;;;7.50;99.90;;;;;;5056944;28;20089;-66
2023/01/04 01:22:00;;;;;;;9.68;3.20;;;7.60;99.90;;;;;;5055611;28;20052;-66
2023/01/04 01:24:26;;;;;;;8.63;2.97;;;7.60;99.90;;;;;;5056040;28;20013;-66
2023/01/04 01:26:52;;;;;;;7.85;3.15;;;7.50;99.90;;;;;;5055411;28;20033;-66
2023/01/04 01:29:17;;;;;;;7.32;2.70;;;7.50;99.90;;;;;;5055678;28;20021;-66
2023/01/04 01:31:43;;;;;;;6.22;2.67;;;7.40;99.90;;;;;;5056915;28;20112;-66
2023/01/04 01:34:08;;;;;;;5.82;2.83;;;7.40;99.90;;;;;;5056361;28;20022;-66
2023/01/04 01:36:34;;;;;;;4.75;2.60;;;7.40;99.90;;;;;;5055449;28;20028;-66
2023/01/04 01:38:59;;;;;;;5.70;3.00;;;7.40;99.90;;;;;;5055393;28;20025;-66
2023/01/04 01:41:30;;;;;;;10.68;2.67;;;7.60;99.90;;;;;;5056033;28;20029;-66
2023/01/04 01:44:19;;;;;;;6.07;2.15;;;7.50;99.90;;;;;;5056143;28;20109;-66
2023/01/04 01:46:50;;;;;;;5.95;2.45;;;7.40;99.90;;;;;;5055124;28;20096;-66
2023/01/04 01:49:30;;;;;;;5.83;2.80;;;7.40;99.90;;;;;;5055365;28;20025;-66
2023/01/04 01:52:00;;;;;;;10.30;3.03;;;7.50;99.90;;;;;;5056416;28;20025;-67
2023/01/04 01:54:30;;;;;;;6.05;3.00;;;7.40;99.90;;;;;;5056132;28;20021;-67
2023/01/04 01:56:59;;;;;;;8.30;2.50;;;7.50;99.90;;;;;;5054870;28;20036;-67
2023/01/04 01:59:25;;;;;;;6.10;2.45;;;7.40;99.90;;;;;;5056384;28;20025;-68
2023/01/04 02:01:51;;;;;;;10.10;3.25;;;7.40;99.90;;;;;;5055758;28;20029;-67
2023/01/04 02:04:16;;;;;;;5.85;3.25;;;7.20;99.90;;;;;;5055250;28;20031;-67
2023/01/04 02:06:47;;;;;;;7.68;3.03;;;7.20;99.90;;;;;;5056048;28;20021;-67
2023/01/04 02:09:13;;;;;;;8.88;3.45;;;7.30;99.90;;;;;;5054924;28;20021;-68
2023/01/04 02:11:39;;;;;;;7.32;2.88;;;7.30;99.90;;;;;;5055480;28;20033;-68
2023/01/04 02:14:25;;;;;;;5.63;2.78;;;7.30;99.90;;;;;;5056929;28;20029;-67
2023/01/04 02:17:35;;;;;;;4.93;2.90;;;7.30;99.90;;;;;;5056278;28;20021;-67
2023/01/04 02:20:25;;;;;;;9.60;3.25;;;7.40;99.90;;;;;;5017513;28;20117;-67
2023/01/04 02:23:27;;;;;;;11.13;3.95;;;7.40;99.90;;;;;;5017145;28;20021;-67
2023/01/04 02:25:52;;;;;;;4.85;3.35;;;7.40;99.90;;;;;;5017069;28;20046;-67
2023/01/04 02:28:55;;;;;;;5.40;2.83;;;7.40;99.90;;;;;;5016845;28;20038;-67
2023/01/04 02:31:39;;;;;;;6.93;3.65;;;7.30;99.90;;;;;;5017429;28;20040;-67
2023/01/04 02:34:14;;;;;;;11.45;3.95;;;7.30;99.90;;;;;;5017807;28;20095;-68
2023/01/04 02:36:55;;;;;;;8.07;3.90;;;7.30;99.90;;;;;;5016975;28;20028;-67
2023/01/04 02:39:37;;;;;;;10.82;4.47;;;7.40;99.90;;;;;;5016931;28;20022;-68
2023/01/04 02:45:19;;;;;;;14.57;4.93;;;7.40;99.90;;;;;;5034096;28;20071;-67
2023/01/04 02:50:34;;;;;;;15.90;5.05;;;7.30;99.90;;;;;;5042121;28;20036;-68
2023/01/04 02:53:14;;;;;;;13.27;5.95;;;7.30;99.90;;;;;;5054778;28;20028;-68
2023/01/04 02:55:58;;;;;;;12.38;4.65;;;7.30;99.90;;;;;;5053816;28;20025;-67
2023/01/04 02:59:02;;;;;;;9.98;4.72;;;7.20;99.90;;;;;;5053798;28;20049;-67
2023/01/04 03:07:56;;;;;;;11.77;5.25;;;7.40;99.90;;;;;;5055552;28;20102;-67
2023/01/04 03:10:39;;;;;;;9.35;4.75;;;7.20;99.90;;;;;;5054973;28;20025;-68
2023/01/04 03:13:17;;;;;;;11.65;5.30;;;7.20;99.90;;;;;;5053643;28;20074;-67
2023/01/04 03:15:49;;;;;;;13.82;5.97;;;7.30;99.90;;;;;;5055040;28;20370;-69
2023/01/04 03:18:22;;;;;;;7.93;5.18;;;7.30;99.90;;;;;;5056610;28;20114;-67
2023/01/04 03:20:51;;;;;;;13.75;6.57;;;7.40;99.90;;;;;;5054863;28;20025;-68
2023/01/04 03:37:33;;;;;;;12.50;5.90;;;7.30;99.90;;;;;;5054524;28;20032;-68
2023/01/04 03:49:17;;;;;;;14.20;5.00;;;7.40;99.90;;;;;;5054399;28;20055;-68
2023/01/04 03:51:44;;;;;;;9.35;3.78;;;7.50;99.90;;;;;;5053826;28;20032;-68
2023/01/04 03:54:18;;;;;;;10.45;5.45;;;7.40;99.90;;;;;;5052720;28;20056;-68
2023/01/04 03:56:45;;;;;;;9.48;4.90;;;7.50;99.90;;;;;;5052723;28;20051;-68
2023/01/04 03:59:11;;;;;;;11.95;4.82;;;7.40;99.90;;;;;;5053087;28;20017;-68
2023/01/04 04:01:38;;;;;;;11.45;4.20;;;7.40;99.90;;;;;;5054022;28;20025;-68
2023/01/04 04:09:32;;;;;;;9.18;4.20;;;7.40;99.90;;;;;;5054478;28;20158;-68
2023/01/04 04:11:58;;;;;;;7.38;3.58;;;7.50;99.90;;;;;;5053713;28;20116;-68
2023/01/04 04:14:23;;;;;;;11.13;4.05;;;7.50;99.90;;;;;;5052886;28;20029;-68
2023/01/04 04:16:49;;;;;;;11.98;3.53;;;7.50;99.90;;;;;;5052704;28;20502;-68
2023/01/04 04:19:14;;;;;;;7.30;3.50;;;7.50;99.90;;;;;;5053227;28;20071;-68
2023/01/04 04:21:41;;;;;;;7.63;3.58;;;7.50;99.90;;;;;;5054922;28;20025;-68
2023/01/04 04:24:08;;;;;;;8.10;3.60;;;7.50;99.90;;;;;;5052167;28;20021;-68
2023/01/04 04:26:34;;;;;;;8.73;4.03;;;7.50;99.90;;;;;;5053606;28;20036;-68
2023/01/04 04:28:59;;;;;;;8.32;3.50;;;7.50;99.90;;;;;;5052510;28;20071;-68
2023/01/04 04:31:25;;;;;;;9.88;4.38;;;7.50;99.90;;;;;;5052355;28;20031;-68
2023/01/04 04:33:50;;;;;;;7.43;3.88;;;7.50;99.90;;;;;;5052468;28;20060;-68
2023/01/04 04:36:16;;;;;;;5.43;3.17;;;7.50;99.90;;;;;;5052098;28;20021;-68
2023/01/04 04:38:41;;;;;;;5.65;3.30;;;7.40;99.90;;;;;;5052661;28;20018;-68
2023/01/04 04:43:56;;;;;;;10.82;4.78;;;7.30;99.90;;;;;;5053949;28;20044;-68
2023/01/04 04:46:22;;;;;;;8.90;4.55;;;7.30;99.90;;;;;;5052023;28;20029;-68
2023/01/04 04:48:47;;;;;;;5.38;3.45;;;7.30;99.90;;;;;;5053313;28;20029;-68
2023/01/04 04:51:13;;;;;;;7.28;3.28;;;7.30;99.90;;;;;;5052507;28;20039;-68
2023/01/04 04:53:39;;;;;;;8.90;3.30;;;7.30;99.90;;;;;;5051926;28;20154;-68
2023/01/04 04:56:05;;;;;;;13.23;3.22;;;7.30;99.90;;;;;;5053054;28;20048;-68
2023/01/04 04:58:31;;;;;;;6.88;3.60;;;7.40;99.90;;;;;;5042485;28;20477;-68
2023/01/04 05:00:56;;;;;;;10.57;4.57;;;7.30;99.90;;;;;;5033345;28;20160;-68
2023/01/04 05:03:22;;;;;;;5.78;3.38;;;7.40;99.90;;;;;;5032273;28;20078;-68
2023/01/04 05:05:47;;;;;;;5.82;3.22;;;7.30;99.90;;;;;;5031865;28;20029;-68
2023/01/04 05:08:13;;;;;;;7.40;3.38;;;7.30;99.90;;;;;;5032098;28;20025;-68
2023/01/04 05:10:38;;;;;;;8.32;3.78;;;7.40;99.90;;;;;;5032201;28;20021;-68
2023/01/04 05:13:06;;;;;;;6.45;3.35;;;7.30;99.90;;;;;;5031744;28;20028;-68
2023/01/04 05:15:37;;;;;;;5.55;3.38;;;7.30;99.90;;;;;;5032761;28;20041;-68
2023/01/04 05:18:04;;;;;;;8.02;3.83;;;7.30;99.90;;;;;;5033268;28;20021;-68
2023/01/04 05:20:30;;;;;;;5.38;3.42;;;7.20;99.90;;;;;;5033437;28;20025;-68
2023/01/04 05:22:55;;;;;;;8.85;3.95;;;7.20;99.90;;;;;;5032736;28;20546;-69
2023/01/04 05:25:21;;;;;;;6.82;4.10;;;7.10;99.90;;;;;;5034772;28;20030;-68
2023/01/04 05:27:46;;;;;;;10.20;3.67;;;7.20;99.90;;;;;;5056041;22;20037;-66
2023/01/04 05:32:58;;;;;;;9.68;4.03;;;7.20;99.90;;;;;;5033029;28;20448;-66
2023/01/04 05:35:24;;;;;;;6.93;3.90;;;7.30;99.90;;;;;;5032989;28;20486;-66
2023/01/04 05:37:50;;;;;;;7.60;3.78;;;7.30;99.90;;;;;;5032549;28;20025;-66
2023/01/04 05:40:16;;;;;;;6.90;3.47;;;7.30;99.90;;;;;;5031488;28;20026;-66
2023/01/04 05:42:41;;;;;;;7.07;3.50;;;7.30;99.90;;;;;;5033386;28;20029;-66
2023/01/04 05:45:09;;;;;;;8.90;4.57;;;7.20;99.90;;;;;;5031637;28;20021;-66
2023/01/04 05:47:34;;;;;;;10.68;3.95;;;7.30;99.90;;;;;;5032481;28;20083;-67
2023/01/04 05:50:00;;;;;;;6.55;4.30;;;7.30;99.90;;;;;;5033107;28;20116;-67
2023/01/04 05:52:26;;;;;;;11.32;4.30;;;7.30;99.90;;;;;;5032523;28;20022;-67
2023/01/04 05:54:52;;;;;;;8.63;4.25;;;7.30;99.90;;;;;;5032800;28;20033;-68
2023/01/04 05:57:17;;;;;;;8.60;4.10;;;7.20;99.90;;;;;;5031183;28;20022;-67
2023/01/04 05:59:43;;;;;;;10.68;5.05;;;7.20;99.90;;;;;;5031270;28;20032;-66
2023/01/04 06:02:14;;;;;;;8.52;4.75;;;7.20;99.90;;;;;;5033498;28;20049;-66
2023/01/04 06:04:39;;;;;;;9.85;5.43;;;7.20;99.90;;;;;;5036397;28;20105;-66
2023/01/04 06:07:05;;;;;;;8.50;5.43;;;7.10;99.90;;;;;;5035096;28;20117;-66
2023/01/04 06:09:30;;;;;;;11.07;5.32;;;7.10;99.90;;;;;;5034843;28;20116;-66
2023/01/04 06:11:56;;;;;;;9.32;4.85;;;7.10;99.90;;;;;;5034998;28;20036;-66
2023/01/04 06:14:22;;;;;;;12.10;5.45;;;7.10;99.90;;;;;;5035821;28;20022;-67
2023/01/04 06:16:47;;;;;;;12.55;5.07;;;7.10;99.90;;;;;;5036078;28;20057;-67
2023/01/04 06:19:13;;;;;;;8.35;5.30;;;7.10;99.90;;;;;;5035744;28;20063;-66
2023/01/04 06:21:38;;;;;;;11.50;5.53;;;7.20;99.90;;;;;;5035672;28;20376;-66
2023/01/04 06:24:04;;;;;;;12.18;5.65;;;7.20;99.90;;;;;;5034490;28;20115;-66
2023/01/04 06:26:29;;;;;;;10.15;5.25;;;7.20;99.90;;;;;;5034424;28;20029;-66
2023/01/04 06:28:55;;;;;;;8.15;5.50;;;7.20;99.90;;;;;;5035000;28;20029;-67
2023/01/04 06:31:20;;;;;;;10.52;5.30;;;7.20;99.90;;;;;;5034919;28;20083;-67
2023/01/04 06:33:46;;;;;;;8.32;4.90;;;7.20;99.90;;;;;;5034334;28;20025;-66
2023/01/04 06:36:11;;;;;;;11.27;4.95;;;7.20;99.90;;;;;;5036033;28;20029;-66
2023/01/04 06:38:37;;;;;;;8.23;4.32;;;7.20;99.90;;;;;;5035747;28;20029;-66
2023/01/04 06:41:03;;;;;;;7.75;4.65;;;7.30;99.90;;;;;;5034375;28;20083;-66
2023/01/04 06:43:28;;;;;;;9.80;4.72;;;7.30;99.90;;;;;;5034090;28;20026;-67
2023/01/04 06:45:54;;;;;;;10.45;4.93;;;7.40;99.90;;;;;;5034056;28;20030;-67
2023/01/04 06:48:19;;;;;;;12.13;5.68;;;7.40;99.90;;;;;;5033921;28;20117;-68
2023/01/04 06:50:45;;;;;;;9.45;5.43;;;7.50;99.90;;;;;;5035531;28;20053;-68
2023/01/04 06:53:10;;;;;;;9.60;4.72;;;7.50;99.90;;;;;;5033808;28;20021;-67
2023/01/04 06:55:36;;;;;;;11.38;6.35;;;7.50;99.90;;;;;;5034911;28;20022;-66
2023/01/04 06:58:01;;;;;;;10.93;5.20;;;7.50;99.90;;;;;;5033757;28;20018;-66
2023/01/04 07:00:27;;;;;;;13.00;6.72;;;7.50;99.90;;;;;;5035267;28;20021;-66
2023/01/04 07:02:52;;;;;;;10.07;5.43;;;7.50;99.90;;;;;;5034115;28;20074;-66
2023/01/04 07:05:18;;;;;;;10.63;6.25;;;7.50;99.90;;;;;;5033726;28;20389;-66
2023/01/04 07:07:43;;;;;;;10.10;5.50;;;7.50;99.90;;;;;;5035069;28;20052;-66
2023/01/04 07:10:10;;;;;;;8.05;4.93;;;7.50;99.90;;;;;;5033647;28;20029;-67
2023/01/04 07:12:37;;;;;;;11.50;5.82;;;7.50;99.90;;;;;;5034910;28;20041;-67
2023/01/04 07:15:02;;;;;;;10.55;5.72;;;7.50;99.90;;;;;;5033402;28;20045;-67
2023/01/04 07:17:28;;;;;;;8.40;5.10;;;7.50;99.90;;;;;;5033393;28;20103;-66
2023/01/04 07:19:54;;;;;;;12.40;5.82;;;7.60;99.90;;;;;;5033458;28;20036;-66
2023/01/04 07:22:19;;;;;;;9.93;5.05;;;7.60;99.90;;;;;;5033705;28;20104;-66
2023/01/04 07:24:45;;;;;;;10.48;4.68;;;7.50;99.90;;;;;;5033422;28;20024;-66
2023/01/04 07:27:10;;;;;;;10.18;5.28;;;7.50;99.90;;;;;;5033198;28;20030;-67
2023/01/04 07:29:36;;;;;;;11.30;5.70;;;7.50;99.90;;;;;;5034425;28;20029;-67
2023/01/04 07:32:02;;;;;;;13.45;5.28;;;7.40;99.90;;;;;;5033104;28;20076;-67
2023/01/04 07:34:28;;;;;;;9.00;4.75;;;7.50;99.90;;;;;;5034418;28;20435;-68
2023/01/04 07:36:54;;;;;;;9.43;5.32;;;7.50;99.90;;;;;;5033239;28;20029;-67
2023/01/04 07:39:20;;;;;;;7.93;4.93;;;7.50;99.90;;;;;;5034261;28;20018;-68
2023/01/04 07:41:47;;;;;;;7.30;5.55;;;7.50;99.90;;;;;;5034531;28;20025;-68
2023/01/04 07:44:13;;;;;;;7.38;4.75;;;7.60;99.90;;;;;;5034547;28;20034;-68
2023/01/04 07:46:39;;;;;;;8.85;5.40;;;7.60;99.90;;;;;;5034108;28;20103;-67
2023/01/04 07:49:05;;;;;;;10.38;5.03;;;7.60;99.90;;;;;;5034128;28;20021;-67
2023/01/04 07:51:31;;;;;;;14.25;5.07;;;7.60;99.90;;;;;;5033692;28;20030;-67
2023/01/04 07:53:58;;;;;;;7.97;4.38;;;7.60;99.90;;;;;;5032680;28;20163;-66
2023/01/04 07:56:23;;;;;;;7.38;4.35;;;7.70;99.90;;;;;;5032596;28;20098;-66
2023/01/04 07:58:49;;;;;;;6.03;4.05;;;7.60;99.90;;;;;;5034374;28;20025;-67
2023/01/04 08:01:17;;;;;;;8.65;4.47;;;7.70;99.90;;;;;;5034056;28;20025;-68
2023/01/04 08:03:46;;;;;;;10.60;4.93;;;7.70;99.90;;;;;;5033766;28;20033;-68
2023/01/04 08:06:14;;;;;;;7.97;4.40;;;7.60;99.90;;;;;;5033631;28;20035;-67
2023/01/04 08:08:40;;;;;;;6.38;4.47;;;7.70;99.90;;;;;;5033046;28;20116;-68
2023/01/04 08:11:08;;;;;;;8.35;4.60;;;7.70;99.90;;;;;;5033789;28;20047;-68
2023/01/04 08:13:34;;;;;;;7.15;4.32;;;7.70;99.90;;;;;;5033615;28;20034;-66
2023/01/04 08:15:59;;;;;;;5.60;3.63;;;7.70;99.90;;;;;;5034127;28;20041;-66
2023/01/04 08:18:25;;;;;;;6.97;3.60;;;7.80;99.90;;;;;;5032666;28;20060;-66
2023/01/04 08:21:00;;;;;;;8.98;4.28;;;7.80;99.90;;;;;;5032258;28;20017;-66
2023/01/04 08:23:26;;;;;;;5.00;3.45;;;7.80;99.90;;;;;;5033167;28;20036;-66
2023/01/04 08:25:51;;;;;;;6.43;3.70;;;7.90;99.90;;;;;;5032834;28;20108;-66
2023/01/04 08:28:17;;;;;;;4.32;3.13;;;7.90;99.90;;;;;;5033399;28;20033;-66
2023/01/04 08:30:42;;;;;;;5.05;2.70;;;8.00;99.90;;;;;;5033376;28;20033;-66
2023/01/04 08:33:14;;;;;;;4.00;2.25;;;8.00;99.90;;;;;;5032064;28;20025;-66
2023/01/04 08:35:40;;;;;;;5.15;2.45;;;8.10;99.90;;;;;;5033260;28;20028;-66
2023/01/04 08:38:06;;;;;;;3.35;2.00;;;8.20;99.90;;;;;;5031953;28;20029;-66
2023/01/04 08:40:31;;;;;;;3.22;2.20;;;8.20;99.90;;;;;;5032345;28;20040;-66
2023/01/04 08:42:57;;;;;;;6.28;2.60;;;8.30;99.90;;;;;;5031990;28;20021;-66
2023/01/04 08:45:22;;;;;;;2.80;1.70;;;8.40;99.90;;;;;;5031902;28;20040;-66
2023/01/04 08:47:48;;;;;;;2.67;1.50;;;8.40;99.90;;;;;;5033422;28;20025;-66
2023/01/04 08:53:44;;;;;;;3.65;1.33;;;8.60;99.90;;;;;;5033229;28;20515;-66
2023/01/04 08:56:10;;;;;;;4.78;1.40;;;8.70;99.90;;;;;;5033094;28;20093;-66
2023/01/04 08:58:36;;;;;;;2.08;1.10;;;8.70;99.90;;;;;;5032172;28;20053;-66
2023/01/04 09:01:09;;;;;;;5.10;1.85;;;8.70;99.90;;;;;;5032170;28;20028;-66
2023/01/04 09:03:36;;;;;;;1.52;1.00;;;8.70;99.90;;;;;;5033310;28;20484;-66
2023/01/04 09:06:06;;;;;;;3.40;1.05;;;8.70;99.90;;;;;;5032921;28;20026;-67
2023/01/04 09:08:33;;;;;;;1.48;0.90;;;8.80;99.90;;;;;;5033467;28;20025;-66
2023/01/04 09:11:03;;;;;;;2.88;1.42;;;8.90;99.90;;;;;;5033245;28;20029;-66
2023/01/04 09:13:29;;;;;;;1.75;1.40;;;8.90;99.90;;;;;;5032920;28;20100;-66
2023/01/04 09:15:58;;;;;;;3.38;1.40;;;8.90;99.90;;;;;;5032894;28;20092;-66
2023/01/04 09:18:23;;;;;;;2.47;1.08;;;8.90;99.90;;;;;;5032179;28;20060;-66
2023/01/04 09:20:49;;;;;;;1.35;0.90;;;9.00;99.90;;;;;;5031704;28;20111;-66
2023/01/04 09:23:14;;;;;;;2.30;0.80;;;9.00;99.90;;;;;;5033183;28;20110;-67
2023/01/04 09:25:40;;;;;;;3.75;0.80;;;9.00;99.90;;;;;;5032018;28;20022;-67
2023/01/04 09:28:05;;;;;;;2.35;0.95;;;9.00;99.90;;;;;;5032775;28;20065;-66
2023/01/04 09:30:31;;;;;;;1.70;0.73;;;9.10;99.90;;;;;;5033388;28;20108;-66
2023/01/04 09:32:56;;;;;;;2.10;0.80;;;9.10;99.90;;;;;;5031449;28;20029;-66
2023/01/04 09:35:22;;;;;;;1.60;0.68;;;9.10;99.90;;;;;;5031540;28;20021;-66
2023/01/04 09:37:47;;;;;;;2.85;0.95;;;9.10;99.90;;;;;;5034749;28;20021;-66
2023/01/04 09:40:21;;;;;;;1.23;0.90;;;9.10;99.90;;;;;;5036589;28;20105;-66
2023/01/04 09:42:48;;;;;;;1.35;1.15;;;9.20;99.90;;;;;;5037217;28;20036;-66
2023/01/04 09:45:22;;;;;;;2.22;0.80;;;9.20;99.90;;;;;;5036500;28;20049;-66
2023/01/04 09:48:08;;;;;;;4.03;0.82;;;9.20;99.90;;;;;;5035151;28;20036;-66
2023/01/04 09:50:51;;;;;;;1.00;0.80;;;9.20;99.90;;;;;;5037030;28;20033;-66
2023/01/04 09:53:28;;;;;;;1.10;0.70;;;9.30;99.90;;;;;;5035328;28;20076;-66
2023/01/04 09:56:00;;;;;;;1.35;0.63;;;9.30;99.90;;;;;;5034967;28;20021;-66
2023/01/04 09:58:40;;;;;;;0.80;0.57;;;9.30;99.90;;;;;;5035038;28;20053;-66
2023/01/04 10:01:17;;;;;;;1.45;0.88;;;9.30;99.90;;;;;;5036236;28;20080;-66
2023/01/04 10:04:28;;;;;;;1.85;0.32;;;9.40;99.90;;;;;;5035454;28;20021;-66
2023/01/04 10:06:53;;;;;;;1.73;0.82;;;9.40;99.90;;;;;;5034908;28;20028;-66
2023/01/04 10:09:19;;;;;;;0.93;0.70;;;9.50;99.90;;;;;;5035908;28;20026;-66
2023/01/04 10:12:00;;;;;;;1.77;0.73;;;9.50;99.90;;;;;;5034711;28;20022;-66
2023/01/04 10:14:49;;;;;;;0.70;0.70;;;9.40;99.90;;;;;;5036182;28;20025;-66
2023/01/04 10:17:24;;;;;;;0.88;0.77;;;9.40;99.90;;;;;;5035959;28;20125;-66
2023/01/04 10:20:27;;;;;;;2.60;0.63;;;9.50;99.90;;;;;;5034561;28;20202;-66
2023/01/04 10:23:13;;;;;;;2.05;0.70;;;9.50;99.90;;;;;;5034812;28;20036;-66
2023/01/04 10:26:02;;;;;;;2.08;0.60;;;9.50;99.90;;;;;;5034520;28;20031;-66
2023/01/04 10:28:55;;;;;;;2.00;0.70;;;9.60;99.90;;;;;;5034553;28;20471;-66
2023/01/04 10:31:28;;;;;;;1.17;0.68;;;9.60;99.90;;;;;;5035254;28;20029;-66
2023/01/04 10:34:19;;;;;;;1.02;0.60;;;9.60;99.90;;;;;;5035438;28;20029;-66
2023/01/04 10:36:46;;;;;;;2.83;0.50;;;9.60;99.90;;;;;;5034252;28;20034;-66
2023/01/04 10:39:15;;;;;;;1.02;0.93;;;9.60;99.90;;;;;;5035561;28;20075;-66
2023/01/04 10:41:55;;;;;;;1.67;0.38;;;9.70;99.90;;;;;;5035384;28;20358;-66
2023/01/04 10:44:38;;;;;;;1.55;0.63;;;9.70;99.90;;;;;;5035466;28;20091;-66
2023/01/04 10:47:47;;;;;;;3.80;0.70;;;9.70;99.90;;;;;;5034404;28;20064;-66
2023/01/04 10:50:46;;;;;;;2.25;0.90;;;9.80;99.90;;;;;;5033064;28;20045;-66
2023/01/04 10:53:24;;;;;;;1.30;0.52;;;9.80;99.90;;;;;;5035507;28;20092;-66
2023/01/04 10:56:15;;;;;;;0.73;0.55;;;9.90;99.90;;;;;;5035424;28;20018;-66
2023/01/04 10:59:10;;;;;;;0.63;0.50;;;9.80;99.90;;;;;;5034183;28;20025;-66
2023/01/04 11:01:35;;;;;;;1.25;0.40;;;9.90;99.90;;;;;;5008595;28;20030;-66
2023/01/04 11:04:20;;;;;;;2.75;0.50;;;9.90;99.90;;;;;;5034997;28;20021;-66
2023/01/04 11:06:51;;;;;;;1.25;0.47;;;10.00;99.90;;;;;;5035429;28;20029;-66
2023/01/04 11:09:23;;;;;;;1.13;0.40;;;10.00;99.90;;;;;;5033615;28;20025;-66
2023/01/04 11:11:49;;;;;;;;;;;9.90;99.90;;;;;;5035665;28;20037;-66
2023/01/04 11:14:15;;;;;;;0.50;0.40;;;9.90;99.90;;;;;;5034836;28;19927;-66
2023/01/04 11:16:48;;;;;;;0.43;0.40;;;9.90;99.90;;;;;;5033775;28;20029;-66
2023/01/04 11:19:14;;;;;;;1.95;0.43;;;10.00;99.90;;;;;;5033492;28;20029;-66
2023/01/04 11:21:51;;;;;;;0.52;0.50;;;10.10;99.90;;;;;;5033548;28;20029;-66
2023/01/04 11:24:17;;;;;;;0.55;0.40;;;10.10;99.90;;;;;;5034680;28;20021;-66
2023/01/04 11:26:46;;;;;;;0.73;0.55;;;10.10;99.90;;;;;;5035254;28;20033;-66
2023/01/04 11:29:56;;;;;;;0.30;0.30;;;10.10;99.90;;;;;;5034689;28;20030;-66
2023/01/04 11:32:50;;;;;;;0.30;0.30;;;10.20;99.90;;;;;;5034543;28;20024;-66
2023/01/04 11:35:35;;;;;;;0.75;0.55;;;10.20;99.90;;;;;;5034778;28;20029;-66
2023/01/04 11:38:11;;;;;;;0.50;0.38;;;10.20;99.90;;;;;;5033179;28;20115;-66
2023/01/04 11:40:36;;;;;;;0.32;0.32;;;10.20;99.90;;;;;;5034306;28;20018;-66
2023/01/04 11:43:18;;;;;;;0.35;0.30;;;10.20;99.90;;;;;;5033046;28;20029;-66
2023/01/04 11:45:57;;;;;;;0.38;0.32;;;10.30;99.90;;;;;;5034252;28;20026;-66
2023/01/04 11:48:36;;;;;;;0.90;0.60;;;10.30;99.90;;;;;;5034255;28;20037;-66
2023/01/04 11:51:02;;;;;;;3.97;0.60;;;10.30;99.90;;;;;;5032974;28;20032;-66
2023/01/04 11:53:29;;;;;;;0.43;0.40;;;10.40;99.90;;;;;;5034236;28;20029;-66
2023/01/04 11:56:19;;;;;;;1.13;0.32;;;10.40;99.90;;;;;;5034644;28;20093;-66
2023/01/04 11:59:07;;;;;;;0.50;0.43;;;10.50;99.90;;;;;;5034170;28;20045;-66
2023/01/04 12:01:36;;;;;;;0.95;0.40;;;10.40;99.90;;;;;;5032227;28;20017;-66
2023/01/04 12:04:08;;;;;;;1.02;0.32;;;10.40;99.90;;;;;;5033898;28;20025;-66
2023/01/04 12:07:00;;;;;;;1.15;0.40;;;10.40;99.90;;;;;;5033242;28;20029;-67
2023/01/04 12:09:29;;;;;;;0.47;0.40;;;10.50;99.90;;;;;;5022244;28;20068;-66
2023/01/04 12:11:57;;;;;;;0.30;0.30;;;10.50;99.90;;;;;;5032761;28;20030;-66
2023/01/04 12:14:39;;;;;;;0.40;0.30;;;10.50;99.90;;;;;;5033600;28;20025;-66
2023/01/04 12:17:22;;;;;;;0.68;0.40;;;10.50;99.90;;;;;;5033592;28;20026;-66
2023/01/04 12:19:50;;;;;;;0.40;0.28;;;10.50;99.90;;;;;;5032723;28;20532;-66
2023/01/04 12:22:37;;;;;;;0.73;0.40;;;10.50;99.90;;;;;;5033631;28;20017;-66
2023/01/04 12:25:35;;;;;;;0.75;0.40;;;10.40;99.90;;;;;;5032332;28;20116;-66
2023/01/04 12:28:01;;;;;;;2.60;0.50;;;10.40;99.90;;;;;;5032237;28;20052;-66
2023/01/04 12:30:45;;;;;;;3.30;0.95;;;10.50;99.90;;;;;;5032520;28;20025;-66
2023/01/04 12:33:29;;;;;;;0.40;0.40;;;10.40;99.90;;;;;;5033444;28;20108;-66
2023/01/04 12:36:02;;;;;;;0.85;0.45;;;10.30;99.90;;;;;;5033622;28;20428;-66
2023/01/04 12:39:01;;;;;;;2.00;0.60;;;10.20;99.90;;;;;;5033427;28;20014;-66
2023/01/04 12:41:33;;;;;;;0.57;0.40;;;10.20;99.90;;;;;;5033298;28;20022;-66
2023/01/04 12:44:00;;;;;;;0.57;0.57;;;10.20;99.90;;;;;;5033337;28;20025;-66
2023/01/04 12:49:38;;;;;;;3.00;1.65;;;10.10;99.90;;;;;;5031228;28;20039;-66
2023/01/04 12:52:06;;;;;;;2.38;0.50;;;10.10;99.90;;;;;;5014936;28;20025;-66
2023/01/04 12:54:48;;;;;;;0.65;0.60;;;10.10;99.90;;;;;;5031366;28;20041;-66
2023/01/04 12:57:16;;;;;;;1.13;0.70;;;10.00;99.90;;;;;;5031118;28;20021;-66
2023/01/04 12:59:58;;;;;;;0.85;0.50;;;10.00;99.90;;;;;;5014268;28;20028;-66
2023/01/04 13:02:30;;;;;;;1.92;0.57;;;10.00;99.90;;;;;;5030956;28;20492;-66
2023/01/04 13:04:59;;;;;;;2.08;0.55;;;10.00;99.90;;;;;;5031272;28;20489;-66
2023/01/04 13:07:30;;;;;;;2.30;1.17;;;10.00;99.90;;;;;;5031021;28;20033;-66
2023/01/04 13:10:00;;;;;;;2.60;1.40;;;9.90;99.90;;;;;;5031327;28;20064;-67
2023/01/04 13:12:37;;;;;;;3.60;1.92;;;9.90;99.90;;;;;;5017365;28;20024;-67
2023/01/04 13:15:09;;;;;;;3.63;1.77;;;9.80;99.90;;;;;;5035404;28;20492;-67
2023/01/04 13:17:38;;;;;;;2.90;1.52;;;9.70;99.90;;;;;;5035040;28;20025;-67
2023/01/04 13:20:18;;;;;;;2.50;1.90;;;9.60;99.90;;;;;;5035842;28;20057;-67
2023/01/04 13:22:53;;;;;;;3.92;2.40;;;9.60;99.90;;;;;;5035937;28;20039;-68
2023/01/04 13:25:21;;;;;;;3.58;1.90;;;9.50;99.90;;;;;;5035594;28;20022;-67
2023/01/04 13:27:58;;;;;;;2.28;1.70;;;9.50;99.90;;;;;;5037138;28;20034;-67
2023/01/04 13:30:33;;;;;;;4.10;2.00;;;9.50;99.90;;;;;;5035939;28;20507;-65
2023/01/04 13:33:06;;;;;;;3.38;2.00;;;9.50;99.90;;;;;;5036129;28;20034;-65
2023/01/04 13:35:31;;;;;;;3.78;2.40;;;9.50;99.90;;;;;;5036821;28;20029;-67
2023/01/04 13:37:59;;;;;;;3.05;2.10;;;9.50;99.90;;;;;;5035248;28;20022;-67
2023/01/04 13:40:36;;;;;;;5.32;1.90;;;9.50;99.90;;;;;;5035257;28;20022;-67
2023/01/04 13:43:11;;;;;;;2.20;1.55;;;9.60;99.90;;;;;;5036842;28;20091;-68
2023/01/04 13:46:15;;;;;;;3.25;1.73;;;9.60;99.90;;;;;;5035411;28;20026;-68
2023/01/04 13:48:46;;;;;;;1.58;1.23;;;9.60;99.90;;;;;;5036606;28;20041;-66
2023/01/04 13:51:16;;;;;;;1.63;1.35;;;9.60;99.90;;;;;;5036743;28;20091;-66
2023/01/04 13:53:54;;;;;;;3.22;1.27;;;9.60;99.90;;;;;;5036220;28;20523;-66
2023/01/04 13:56:23;;;;;;;3.15;1.58;;;9.60;99.90;;;;;;5036560;28;20021;-66
2023/01/04 13:58:49;;;;;;;2.80;1.45;;;9.60;99.90;;;;;;5035140;28;20117;-66
2023/01/04 14:01:37;;;;;;;3.20;1.75;;;9.60;99.90;;;;;;5036176;28;20048;-66
2023/01/04 14:04:06;;;;;;;3.80;1.90;;;9.60;99.90;;;;;;5034939;28;20084;-66
2023/01/04 14:06:43;;;;;;;2.17;1.15;;;9.60;99.90;;;;;;5036082;28;20026;-66